• Join FlightAware (Why Join?)
  • Login
  • US Flag 
03:54AM EDT


 

Airport Tracker/Info


-or-


 

Live Flight TrackerFlight Track Log ✈ N550PM ✈ 11-Aug-2013 ✈ RJGG / NGO - NVVV / VLI

Flight Track Log - Related Links

Times and Time Zones

All times are in EDT time to prevent confusion due to time zone crossing. See the N550PM flight status page for this flight to view local times or setup timezone preferences in your user account.

Time Position Orientation Groundspeed Altitude Reporting Facility
EDT Latitude Longitude Course Direction KTS MPH feet Rate Location/Type
04:47PM 34.6022 137.0795 139° Southeast  Level FlightAware Approximate
04:48PM 34.5167 137.1705 139° Southeast  Level FlightAware Approximate
04:49PM 34.4311 137.2613 139° Southeast  Level FlightAware Approximate
04:50PM 34.3455 137.3520 139° Southeast  Level FlightAware Approximate
04:51PM 34.2598 137.4425 139° Southeast  Level FlightAware Approximate
04:52PM 34.1740 137.5327 139° Southeast  Level FlightAware Approximate
04:53PM 34.0881 137.6228 139° Southeast  Level FlightAware Approximate
04:54PM 34.0022 137.7128 139° Southeast  Level FlightAware Approximate
04:55PM 33.9162 137.8025 139° Southeast  Level FlightAware Approximate
04:56PM 33.8222 137.8795 168° South  Level Estimated
04:57PM 33.7293 137.9583 145° Southeast  Level FlightAware Approximate
04:58PM 33.6362 138.0369 145° Southeast  Level FlightAware Approximate
04:59PM 33.5432 138.1153 145° Southeast  Level FlightAware Approximate
05:00PM 33.4500 138.1936 145° Southeast  Level FlightAware Approximate
05:01PM 33.3568 138.2717 145° Southeast  Level FlightAware Approximate
05:02PM 33.2636 138.3496 145° Southeast  Level FlightAware Approximate
05:03PM 33.1703 138.4273 145° Southeast  Level FlightAware Approximate
05:04PM 33.0770 138.5049 145° Southeast  Level FlightAware Approximate
05:05PM 32.9826 138.5805 169° South  Level Estimated
05:06PM 32.8768 138.6303 158° South  Level FlightAware Approximate
05:07PM 32.7711 138.6801 158° South  Level FlightAware Approximate
05:08PM 32.6653 138.7297 158° South  Level FlightAware Approximate
05:09PM 32.5595 138.7793 158° South  Level FlightAware Approximate
05:10PM 32.4537 138.8287 158° South  Level FlightAware Approximate
05:11PM 32.3479 138.8780 159° South  Level FlightAware Approximate
05:12PM 32.2420 138.9271 159° South  Level FlightAware Approximate
05:13PM 32.1362 138.9762 159° South  Level FlightAware Approximate
05:14PM 32.0303 139.0251 159° South  Level FlightAware Approximate
05:15PM 31.9244 139.0740 159° South  Level FlightAware Approximate
05:16PM 31.8185 139.1227 159° South  Level FlightAware Approximate
05:17PM 31.7125 139.1713 159° South  Level FlightAware Approximate
05:18PM 31.6066 139.2198 159° South  Level FlightAware Approximate
05:19PM 31.5006 139.2682 159° South  Level FlightAware Approximate
05:20PM 31.3946 139.3165 159° South  Level FlightAware Approximate
05:21PM 31.2886 139.3647 159° South  Level FlightAware Approximate
05:22PM 31.1825 139.4127 159° South  Level FlightAware Approximate
05:23PM 31.0765 139.4607 159° South  Level FlightAware Approximate
05:24PM 30.9704 139.5085 159° South  Level FlightAware Approximate
05:25PM 30.8643 139.5563 159° South  Level FlightAware Approximate
05:26PM 30.7582 139.6039 159° South  Level FlightAware Approximate
05:27PM 30.6521 139.6514 159° South  Level FlightAware Approximate
05:28PM 30.5460 139.6989 159° South  Level FlightAware Approximate
05:29PM 30.4398 139.7462 159° South  Level FlightAware Approximate
05:30PM 30.3337 139.7934 159° South  Level FlightAware Approximate
05:31PM 30.2275 139.8405 159° South  Level FlightAware Approximate
05:32PM 30.1213 139.8875 159° South  Level FlightAware Approximate
05:33PM 30.0151 139.9345 159° South  Level FlightAware Approximate
05:34PM 29.9088 139.9813 159° South  Level FlightAware Approximate
05:35PM 29.8026 140.0280 159° South  Level FlightAware Approximate
05:36PM 29.6963 140.0746 159° South  Level FlightAware Approximate
05:37PM 29.5900 140.1211 159° South  Level FlightAware Approximate
05:38PM 29.4837 140.1676 159° South  Level FlightAware Approximate
05:39PM 29.3774 140.2139 159° South  Level FlightAware Approximate
05:40PM 29.2710 140.2601 159° South  Level FlightAware Approximate
05:41PM 29.1647 140.3062 159° South  Level FlightAware Approximate
05:42PM 29.0583 140.3523 159° South  Level FlightAware Approximate
05:43PM 28.9519 140.3982 159° South  Level FlightAware Approximate
05:44PM 28.8455 140.4441 159° South  Level FlightAware Approximate
05:45PM 28.7391 140.4898 159° South  Level FlightAware Approximate
05:46PM 28.6327 140.5355 159° South  Level FlightAware Approximate
05:47PM 28.5263 140.5810 159° South  Level FlightAware Approximate
05:48PM 28.4198 140.6265 159° South  Level FlightAware Approximate
05:49PM 28.3133 140.6719 159° South  Level FlightAware Approximate
05:50PM 28.2185 140.7431 167° South  Level Estimated
05:51PM 28.0946 140.7841 164° South  Level FlightAware Approximate
05:52PM 27.9707 140.8251 164° South  Level FlightAware Approximate
05:53PM 27.8468 140.8659 164° South  Level FlightAware Approximate
05:54PM 27.7228 140.9066 164° South  Level FlightAware Approximate
05:55PM 27.5989 140.9473 164° South  Level FlightAware Approximate
05:56PM 27.4749 140.9878 164° South  Level FlightAware Approximate
05:57PM 27.3510 141.0283 164° South  Level FlightAware Approximate
05:58PM 27.2270 141.0686 164° South  Level FlightAware Approximate
05:59PM 27.1030 141.1089 164° South  Level FlightAware Approximate
06:00PM 26.9790 141.1491 164° South  Level FlightAware Approximate
06:01PM 26.8550 141.1892 164° South  Level FlightAware Approximate
06:02PM 26.7310 141.2292 164° South  Level FlightAware Approximate
06:03PM 26.6069 141.2692 164° South  Level FlightAware Approximate
06:04PM 26.4829 141.3090 164° South  Level FlightAware Approximate
06:05PM 26.3588 141.3488 164° South  Level FlightAware Approximate
06:06PM 26.2348 141.3884 164° South  Level FlightAware Approximate
06:07PM 26.1107 141.4280 164° South  Level FlightAware Approximate
06:08PM 25.9866 141.4675 164° South  Level FlightAware Approximate
06:09PM 25.8625 141.5069 164° South  Level FlightAware Approximate
06:10PM 25.7384 141.5463 164° South  Level FlightAware Approximate
06:11PM 25.6143 141.5855 164° South  Level FlightAware Approximate
06:12PM 25.4901 141.6247 164° South  Level FlightAware Approximate
06:13PM 25.3660 141.6638 164° South  Level FlightAware Approximate
06:14PM 25.2418 141.7028 164° South  Level FlightAware Approximate
06:15PM 25.1177 141.7417 164° South  Level FlightAware Approximate
06:16PM 24.9935 141.7806 164° South  Level FlightAware Approximate
06:17PM 24.8693 141.8194 164° South  Level FlightAware Approximate
06:18PM 24.7451 141.8581 164° South  Level FlightAware Approximate
06:19PM 24.6210 141.8967 164° South  Level FlightAware Approximate
06:20PM 24.4967 141.9352 164° South  Level FlightAware Approximate
06:21PM 24.3725 141.9737 164° South  Level FlightAware Approximate
06:22PM 24.2654 142.0526 167° South  Level Estimated
06:23PM 24.1403 142.0875 166° South  Level FlightAware Approximate
06:24PM 24.0152 142.1223 166° South  Level FlightAware Approximate
06:25PM 23.8901 142.1570 166° South  Level FlightAware Approximate
06:26PM 23.7650 142.1917 166° South  Level FlightAware Approximate
06:27PM 23.6399 142.2263 166° South  Level FlightAware Approximate
06:28PM 23.5147 142.2608 166° South  Level FlightAware Approximate
06:29PM 23.3896 142.2953 166° South  Level FlightAware Approximate
06:30PM 23.2645 142.3297 166° South  Level FlightAware Approximate
06:31PM 23.1393 142.3640 166° South  Level FlightAware Approximate
06:32PM 23.0569 142.3866 166° South  Level FlightAware Approximate
06:33PM 22.9744 142.4092 166° South  Level FlightAware Approximate
06:34PM 22.8919 142.4317 166° South  Level FlightAware Approximate
06:35PM 22.8095 142.4542 166° South  Level FlightAware Approximate
06:36PM 22.7270 142.4767 166° South  Level FlightAware Approximate
06:37PM 22.6445 142.4992 166° South  Level FlightAware Approximate
06:38PM 22.5620 142.5216 166° South  Level FlightAware Approximate
06:39PM 22.4796 142.5440 166° South  Level FlightAware Approximate
06:40PM 22.3971 142.5664 166° South  Level FlightAware Approximate
06:41PM 22.3146 142.5887 166° South  Level FlightAware Approximate
06:42PM 22.2321 142.6110 166° South  Level FlightAware Approximate
06:43PM 22.1496 142.6333 166° South  Level FlightAware Approximate
06:44PM 22.0671 142.6556 166° South  Level FlightAware Approximate
06:45PM 21.9846 142.6778 166° South  Level FlightAware Approximate
06:46PM 21.9021 142.7000 166° South  Level FlightAware Approximate
06:47PM 21.8196 142.7222 166° South  Level FlightAware Approximate
06:48PM 21.7371 142.7444 166° South  Level FlightAware Approximate
06:49PM 21.6546 142.7665 166° South  Level FlightAware Approximate
06:50PM 21.5720 142.7886 166° South  Level FlightAware Approximate
06:51PM 21.4895 142.8107 166° South  Level FlightAware Approximate
06:52PM 21.4070 142.8328 166° South  Level FlightAware Approximate
06:53PM 21.3245 142.8548 166° South  Level FlightAware Approximate
06:53PM 21.0000 142.9833 167° South 451 519 45,000  Level Oakland Oceanic (ODAPS)
06:54PM 21.2419 142.8768 166° South  Level FlightAware Approximate
06:55PM 21.1594 142.8988 166° South  Level FlightAware Approximate
06:56PM 21.0769 142.9208 166° South  Level FlightAware Approximate
06:57PM 20.9943 142.9427 166° South  Level FlightAware Approximate
06:58PM 20.9243 142.9944 168° South  Level Estimated
06:59PM 19.5291 143.3520 167° South 451 519 45,000  Level FlightAware Transoceanic
07:00PM 19.4064 143.3824 167° South 451 519 45,000  Level FlightAware Transoceanic
07:01PM 19.2838 143.4128 167° South 451 519 45,000  Level FlightAware Transoceanic
07:02PM 19.1612 143.4431 167° South 451 519 45,000  Level FlightAware Transoceanic
07:03PM 19.0386 143.4734 167° South 451 519 45,000  Level FlightAware Transoceanic
07:04PM 18.9159 143.5036 167° South 451 519 45,000  Level FlightAware Transoceanic
07:05PM 18.7933 143.5338 167° South 451 519 45,000  Level FlightAware Transoceanic
07:06PM 18.6707 143.5639 167° South 451 519 45,000  Level FlightAware Transoceanic
07:07PM 18.5480 143.5941 167° South 451 519 45,000  Level FlightAware Transoceanic
07:08PM 18.4254 143.6241 167° South 451 519 45,000  Level FlightAware Transoceanic
07:09PM 18.3027 143.6541 167° South 451 519 45,000  Level FlightAware Transoceanic
07:10PM 18.1800 143.6841 167° South 451 519 45,000  Level FlightAware Transoceanic
07:11PM 18.0574 143.7140 167° South 451 519 45,000  Level FlightAware Transoceanic
07:12PM 17.9347 143.7439 167° South 451 519 45,000  Level FlightAware Transoceanic
07:13PM 17.8120 143.7738 167° South 451 519 45,000  Level FlightAware Transoceanic
07:14PM 17.6894 143.8036 167° South 451 519 45,000  Level FlightAware Transoceanic
07:15PM 17.5667 143.8333 168° South 451 519 45,000  Level FlightAware Transoceanic
07:15PM 17.4000 143.8333 168° South 480 552 45,000  Level Guam Center
07:16PM 17.4297 143.8643 168° South 451 519 45,000  Level FlightAware Transoceanic
07:16PM 17.2833 143.8667 165° South 470 541 45,000  Level Guam Center
07:17PM 17.2927 143.8952 168° South 451 519 45,000  Level FlightAware Transoceanic
07:17PM 17.1500 143.8833 173° South 470 541 45,000  Level Guam Center
07:18PM 17.1557 143.9260 168° South 451 519 45,000  Level FlightAware Transoceanic
07:18PM 17.0167 143.9333 160° South 470 541 45,000  Level Guam Center
07:19PM 17.0186 143.9568 168° South 451 519 45,000  Level FlightAware Transoceanic
07:19PM 16.9000 143.9667 165° South 470 541 45,000  Level Guam Center
07:20PM 16.8816 143.9875 168° South 451 519 45,000  Level FlightAware Transoceanic
07:20PM 16.7833 144.0500 146° Southeast 460 529 45,000  Level Guam Center
07:21PM 16.7446 144.0182 168° South 451 519 45,000  Level FlightAware Transoceanic
07:21PM 16.6833 144.1167 147° Southeast 460 529 45,000  Level Guam Center
07:22PM 16.5667 144.1833 151° Southeast 470 541 45,000  Level Guam Center
07:23PM 16.4667 144.2500 147° Southeast 470 541 45,000  Level Guam Center
07:24PM 16.3333 144.3333 149° Southeast 470 541 45,000  Level Guam Center
07:25PM 16.2333 144.3833 154° Southeast 470 541 45,000  Level Guam Center
07:26PM 16.1167 144.4667 146° Southeast 470 541 45,000  Level Guam Center
07:27PM 16.0000 144.5333 151° Southeast 470 541 45,000  Level Guam Center
07:28PM 15.9000 144.6000 147° Southeast 470 541 45,000  Level Guam Center
07:29PM 15.7833 144.6667 151° Southeast 470 541 45,000  Level Guam Center
07:30PM 15.6667 144.7333 151° Southeast 470 541 45,000  Level Guam Center
07:31PM 15.5500 144.8000 151° Southeast 470 541 45,000  Level Guam Center
07:32PM 15.4333 144.8667 151° Southeast 470 541 45,000  Level Guam Center
07:33PM 15.3167 144.9333 151° Southeast 480 552 45,000  Level Guam Center
07:34PM 15.2167 145.0167 141° Southeast 470 541 45,000  Level Guam Center
07:35PM 15.1000 145.0833 151° Southeast 470 541 45,000  Level Guam Center
07:36PM 14.9833 145.1500 151° Southeast 480 552 45,000  Level Guam Center
07:37PM 14.8667 145.2167 151° Southeast 470 541 45,000  Level Guam Center
07:38PM 14.7500 145.2833 151° Southeast 470 541 45,000  Level Guam Center
07:39PM 14.6333 145.3500 151° Southeast 470 541 45,000  Level Guam Center
07:40PM 14.5167 145.4167 151° Southeast 480 552 45,000  Level Guam Center
07:41PM 14.4167 145.4833 147° Southeast 480 552 45,000  Level Guam Center
07:42PM 14.3000 145.5500 151° Southeast 470 541 45,000  Level Guam Center
07:43PM 14.1833 145.6167 151° Southeast 470 541 45,000  Level Guam Center
07:44PM 14.0667 145.6833 151° Southeast 470 541 45,000  Level Guam Center
07:45PM 13.9500 145.7667 145° Southeast 470 541 45,000  Level Guam Center
07:46PM 13.8333 145.8333 151° Southeast 460 529 45,000  Level Guam Center
07:47PM 13.7333 145.9000 147° Southeast 470 541 45,000  Level Guam Center
07:48PM 13.6167 145.9667 151° Southeast 460 529 45,000  Level Guam Center
07:49PM 13.5000 146.0167 157° South 460 529 45,000  Level Guam Center
07:50PM 13.3833 146.0833 151° Southeast 460 529 45,000  Level Guam Center
07:51PM 13.2833 146.1500 147° Southeast 460 529 45,000  Level Guam Center
07:52PM 13.1667 146.2167 151° Southeast 460 529 45,000  Level Guam Center
07:53PM 13.0500 146.2833 151° Southeast 460 529 45,000  Level Guam Center
07:54PM 12.9500 146.3500 147° Southeast 460 529 45,000  Level Guam Center
07:55PM 12.8333 146.4167 151° Southeast 470 541 45,000  Level Guam Center
07:56PM 12.7167 146.4833 151° Southeast 460 529 45,000  Level Guam Center
07:57PM 12.6000 146.5500 151° Southeast 460 529 45,000  Level Guam Center
07:58PM 12.5000 146.6167 147° Southeast 470 541 45,000  Level Guam Center
07:59PM 12.3833 146.6833 151° Southeast 460 529 45,000  Level Guam Center
08:00PM 12.2667 146.7500 151° Southeast 460 529 45,000  Level Guam Center
08:01PM 12.1667 146.8167 147° Southeast 460 529 45,000  Level Guam Center
08:02PM 12.0500 146.8833 151° Southeast 460 529 45,000  Level Guam Center
08:03PM 11.9333 146.9500 151° Southeast 460 529 45,000  Level Guam Center
08:04PM 11.8333 147.0167 147° Southeast 450 518 45,000  Level Guam Center
08:05PM 11.7167 147.0667 157° South 450 518 45,000  Level Guam Center
08:06PM 11.6000 147.1333 151° Southeast 450 518 45,000  Level Guam Center
08:07PM 11.4833 147.1833 157° South 440 506 45,000  Level Guam Center
08:08PM 11.3667 147.2333 157° South 450 518 45,000  Level Guam Center
08:09PM 11.2667 147.2833 154° Southeast 440 506 45,000  Level Guam Center
08:10PM 11.1500 147.3167 164° South 440 506 45,000  Level Guam Center
08:11PM 11.0167 147.3667 160° South 450 518 45,000  Level Guam Center
08:12PM 10.9167 147.4333 147° Southeast 460 529 45,000  Level Guam Center
08:13PM 10.8167 147.5167 141° Southeast 450 518 45,000  Level Guam Center
08:14PM 10.7333 147.6000 136° Southeast 440 506 45,000  Level Guam Center
08:15PM 10.6333 147.6667 147° Southeast 440 506 45,000  Level Guam Center
08:16PM 10.5333 147.7500 141° Southeast 440 506 45,000  Level Guam Center
08:18PM 10.3878 147.8244 148° Southeast  Level FlightAware Approximate
08:20PM 10.4500 147.8000 148° Southeast 449 517 45,000  Level Oakland Oceanic (ODAPS)
08:25PM 9.6184 148.3092 148° Southeast  Level FlightAware Approximate
08:26PM 9.5084 148.3783 148° Southeast  Level FlightAware Approximate
08:27PM 9.2759 148.5350 148° Southeast 449 517 45,000  Level FlightAware Transoceanic
08:28PM 9.1690 148.6016 148° Southeast 449 517 45,000  Level FlightAware Transoceanic
08:29PM 9.0622 148.6681 148° Southeast 449 517 45,000  Level FlightAware Transoceanic
08:30PM 8.9554 148.7346 148° Southeast 449 517 45,000  Level FlightAware Transoceanic
08:31PM 8.8485 148.8011 148° Southeast 449 517 45,000  Level FlightAware Transoceanic
08:32PM 8.7416 148.8675 148° Southeast 449 517 45,000  Level FlightAware Transoceanic
08:33PM 8.6348 148.9339 148° Southeast 449 517 45,000  Level FlightAware Transoceanic
08:34PM 8.5279 149.0002 148° Southeast 449 517 45,000  Level FlightAware Transoceanic
08:35PM 8.4210 149.0665 148° Southeast 449 517 45,000  Level FlightAware Transoceanic
08:36PM 8.3141 149.1328 148° Southeast 449 517 45,000  Level FlightAware Transoceanic
08:37PM 8.2072 149.1990 148° Southeast 449 517 45,000  Level FlightAware Transoceanic
08:38PM 8.1002 149.2652 149° Southeast 449 517 45,000  Level FlightAware Transoceanic
08:39PM 7.9933 149.3313 149° Southeast 449 517 45,000  Level FlightAware Transoceanic
08:40PM 7.8863 149.3974 149° Southeast 449 517 45,000  Level FlightAware Transoceanic
08:41PM 7.7794 149.4635 149° Southeast 449 517 45,000  Level FlightAware Transoceanic
08:42PM 7.6724 149.5296 149° Southeast 449 517 45,000  Level FlightAware Transoceanic
08:43PM 7.5654 149.5956 149° Southeast 449 517 45,000  Level FlightAware Transoceanic
08:44PM 7.4584 149.6616 149° Southeast 449 517 45,000  Level FlightAware Transoceanic
08:45PM 7.3514 149.7276 149° Southeast 449 517 45,000  Level FlightAware Transoceanic
08:46PM 7.2444 149.7935 149° Southeast 449 517 45,000  Level FlightAware Transoceanic
08:47PM 7.1374 149.8594 149° Southeast 449 517 45,000  Level FlightAware Transoceanic
08:48PM 7.0304 149.9252 149° Southeast 449 517 45,000  Level FlightAware Transoceanic
08:49PM 6.9233 149.9911 149° Southeast 449 517 45,000  Level FlightAware Transoceanic
08:50PM 6.8163 150.0569 149° Southeast 449 517 45,000  Level FlightAware Transoceanic
08:51PM 6.7092 150.1226 149° Southeast 449 517 45,000  Level FlightAware Transoceanic
08:52PM 6.6021 150.1884 149° Southeast 449 517 45,000  Level FlightAware Transoceanic
08:53PM 6.4951 150.2541 149° Southeast 449 517 45,000  Level FlightAware Transoceanic
08:54PM 6.3880 150.3198 149° Southeast 449 517 45,000  Level FlightAware Transoceanic
08:55PM 6.2809 150.3854 149° Southeast 449 517 45,000  Level FlightAware Transoceanic
08:56PM 6.1738 150.4511 149° Southeast 449 517 45,000  Level FlightAware Transoceanic
08:57PM 6.0667 150.5167 148° Southeast 449 517 45,000  Level FlightAware Transoceanic
08:58PM 5.9545 150.5860 148° Southeast 449 517 45,000  Level FlightAware Transoceanic
08:59PM 5.8423 150.6553 148° Southeast 449 517 45,000  Level FlightAware Transoceanic
09:00PM 5.7301 150.7246 148° Southeast 449 517 45,000  Level FlightAware Transoceanic
09:01PM 5.6178 150.7938 148° Southeast 449 517 45,000  Level FlightAware Transoceanic
09:01PM 6.0667 150.5167 148° Southeast 454 522 45,000  Level Oakland Oceanic (ODAPS)
09:02PM 5.5056 150.8630 148° Southeast 449 517 45,000  Level FlightAware Transoceanic
09:03PM 5.3934 150.9322 148° Southeast 449 517 45,000  Level FlightAware Transoceanic
09:04PM 5.2811 151.0014 148° Southeast 449 517 45,000  Level FlightAware Transoceanic
09:05PM 5.1689 151.0705 148° Southeast 449 517 45,000  Level FlightAware Transoceanic
09:06PM 5.0566 151.1397 148° Southeast 449 517 45,000  Level FlightAware Transoceanic
09:07PM 5.0927 151.1174 148° Southeast 454 522 45,000  Level FlightAware Transoceanic
09:08PM 4.9845 151.1841 148° Southeast 454 522 45,000  Level FlightAware Transoceanic
09:09PM 4.8762 151.2507 148° Southeast 454 522 45,000  Level FlightAware Transoceanic
09:10PM 4.7680 151.3173 148° Southeast 454 522 45,000  Level FlightAware Transoceanic
09:11PM 4.6597 151.3839 149° Southeast 454 522 45,000  Level FlightAware Transoceanic
09:12PM 4.5514 151.4504 149° Southeast 454 522 45,000  Level FlightAware Transoceanic
09:13PM 4.4431 151.5169 149° Southeast 454 522 45,000  Level FlightAware Transoceanic
09:14PM 4.3348 151.5835 149° Southeast 454 522 45,000  Level FlightAware Transoceanic
09:15PM 4.2265 151.6499 149° Southeast 454 522 45,000  Level FlightAware Transoceanic
09:16PM 4.1182 151.7164 149° Southeast 454 522 45,000  Level FlightAware Transoceanic
09:17PM 4.0099 151.7829 149° Southeast 454 522 45,000  Level FlightAware Transoceanic
09:18PM 3.9016 151.8493 149° Southeast 454 522 45,000  Level FlightAware Transoceanic
09:19PM 3.7933 151.9157 149° Southeast 454 522 45,000  Level FlightAware Transoceanic
09:20PM 3.6850 151.9821 149° Southeast 454 522 45,000  Level FlightAware Transoceanic
09:21PM 3.5766 152.0485 149° Southeast 454 522 45,000  Level FlightAware Transoceanic
09:22PM 3.4683 152.1149 149° Southeast 454 522 45,000  Level FlightAware Transoceanic
09:23PM 3.3600 152.1812 149° Southeast 454 522 45,000  Level FlightAware Transoceanic
09:24PM 3.2516 152.2476 149° Southeast 454 522 45,000  Level FlightAware Transoceanic
09:25PM 3.1433 152.3139 149° Southeast 454 522 45,000  Level FlightAware Transoceanic
09:26PM 3.0349 152.3802 149° Southeast 454 522 45,000  Level FlightAware Transoceanic
09:27PM 2.9266 152.4465 149° Southeast 454 522 45,000  Level FlightAware Transoceanic
09:28PM 2.8182 152.5128 149° Southeast 454 522 45,000  Level FlightAware Transoceanic
09:29PM 2.7099 152.5791 149° Southeast 454 522 45,000  Level FlightAware Transoceanic
09:30PM 2.6015 152.6454 149° Southeast 454 522 45,000  Level FlightAware Transoceanic
09:31PM 2.4931 152.7116 149° Southeast 454 522 45,000  Level FlightAware Transoceanic
09:32PM 2.3847 152.7778 149° Southeast 454 522 45,000  Level FlightAware Transoceanic
09:33PM 2.2764 152.8441 149° Southeast 454 522 45,000  Level FlightAware Transoceanic
09:34PM 2.1680 152.9103 149° Southeast 454 522 45,000  Level FlightAware Transoceanic
09:35PM 2.0596 152.9765 149° Southeast 454 522 45,000  Level FlightAware Transoceanic
09:36PM 1.9512 153.0427 149° Southeast 454 522 45,000  Level FlightAware Transoceanic
09:37PM 1.8428 153.1089 149° Southeast 454 522 45,000  Level FlightAware Transoceanic
09:38PM 1.7344 153.1751 149° Southeast 454 522 45,000  Level FlightAware Transoceanic
09:39PM 1.6261 153.2413 149° Southeast 454 522 45,000  Level FlightAware Transoceanic
09:40PM 1.5177 153.3074 149° Southeast 454 522 45,000  Level FlightAware Transoceanic
09:41PM 1.4093 153.3736 149° Southeast 454 522 45,000  Level FlightAware Transoceanic
09:42PM 1.3009 153.4397 149° Southeast 454 522 45,000  Level FlightAware Transoceanic
09:43PM 1.1925 153.5059 149° Southeast 454 522 45,000  Level FlightAware Transoceanic
09:44PM 1.0841 153.5721 149° Southeast 454 522 45,000  Level FlightAware Transoceanic
09:45PM 0.9757 153.6382 149° Southeast 454 522 45,000  Level FlightAware Transoceanic
09:46PM 0.8673 153.7043 149° Southeast 454 522 45,000  Level FlightAware Transoceanic
09:47PM 0.7589 153.7705 149° Southeast 454 522 45,000  Level FlightAware Transoceanic
09:48PM 0.6504 153.8366 149° Southeast 454 522 45,000  Level FlightAware Transoceanic
09:49PM 0.5420 153.9027 149° Southeast 454 522 45,000  Level FlightAware Transoceanic
09:50PM 0.4336 153.9689 149° Southeast 454 522 45,000  Level FlightAware Transoceanic
09:51PM 0.3252 154.0350 149° Southeast 454 522 45,000  Level FlightAware Transoceanic
09:52PM 0.2168 154.1011 149° Southeast 454 522 45,000  Level FlightAware Transoceanic
09:53PM 0.1084 154.1672 149° Southeast 454 522 45,000  Level FlightAware Transoceanic
09:54PM 0.0000 154.2333 149° Southeast 454 522 45,000  Level FlightAware Transoceanic
09:55PM -0.1124 154.3015 149° Southeast 454 522 45,000  Level FlightAware Transoceanic
09:56PM -0.2248 154.3696 149° Southeast 454 522 45,000  Level FlightAware Transoceanic
09:57PM -0.3372 154.4377 149° Southeast 454 522 45,000  Level FlightAware Transoceanic
09:58PM -0.4496 154.5058 149° Southeast 454 522 45,000  Level FlightAware Transoceanic
09:59PM -0.5620 154.5739 149° Southeast 454 522 45,000  Level FlightAware Transoceanic
10:00PM -0.6744 154.6420 149° Southeast 454 522 45,000  Level FlightAware Transoceanic
10:01PM -0.7868 154.7102 149° Southeast 454 522 45,000  Level FlightAware Transoceanic
10:02PM -0.8992 154.7783 149° Southeast 454 522 45,000  Level FlightAware Transoceanic
10:03PM -1.0116 154.8464 149° Southeast 454 522 45,000  Level FlightAware Transoceanic
10:04PM -1.1240 154.9146 149° Southeast 454 522 45,000  Level FlightAware Transoceanic
10:05PM -1.2364 154.9827 149° Southeast 454 522 45,000  Level FlightAware Transoceanic
10:06PM -1.3487 155.0509 149° Southeast 454 522 45,000  Level FlightAware Transoceanic
10:07PM -1.4611 155.1190 149° Southeast 454 522 45,000  Level FlightAware Transoceanic
10:08PM -1.5735 155.1872 149° Southeast 454 522 45,000  Level FlightAware Transoceanic
10:09PM -1.6859 155.2553 149° Southeast 454 522 45,000  Level FlightAware Transoceanic
10:10PM -1.7983 155.3235 149° Southeast 454 522 45,000  Level FlightAware Transoceanic
10:11PM -1.9107 155.3917 149° Southeast 454 522 45,000  Level FlightAware Transoceanic
10:12PM -2.0230 155.4599 149° Southeast 454 522 45,000  Level FlightAware Transoceanic
10:13PM -2.1354 155.5281 149° Southeast 454 522 45,000  Level FlightAware Transoceanic
10:14PM -2.2478 155.5963 149° Southeast 454 522 45,000  Level FlightAware Transoceanic
10:15PM -2.3602 155.6645 149° Southeast 454 522 45,000  Level FlightAware Transoceanic
10:16PM -2.4725 155.7328 149° Southeast 454 522 45,000  Level FlightAware Transoceanic
10:17PM -2.5849 155.8010 149° Southeast 454 522 45,000  Level FlightAware Transoceanic
10:18PM -2.6972 155.8693 149° Southeast 454 522 45,000  Level FlightAware Transoceanic
10:19PM -2.8096 155.9375 149° Southeast 454 522 45,000  Level FlightAware Transoceanic
10:20PM -2.9219 156.0058 149° Southeast 454 522 45,000  Level FlightAware Transoceanic
10:21PM -3.0343 156.0741 149° Southeast 454 522 45,000  Level FlightAware Transoceanic
10:22PM -3.1466 156.1425 149° Southeast 454 522 45,000  Level FlightAware Transoceanic
10:23PM -3.2589 156.2108 149° Southeast 454 522 45,000  Level FlightAware Transoceanic
10:24PM -3.3713 156.2791 149° Southeast 454 522 45,000  Level FlightAware Transoceanic
10:25PM -3.4836 156.3475 149° Southeast 454 522 45,000  Level FlightAware Transoceanic
10:26PM -3.5959 156.4158 149° Southeast 454 522 45,000  Level FlightAware Transoceanic
10:27PM -3.7082 156.4843 149° Southeast 454 522 45,000  Level FlightAware Transoceanic
10:28PM -3.8205 156.5527 149° Southeast 454 522 45,000  Level FlightAware Transoceanic
10:29PM -3.9328 156.6211 149° Southeast 454 522 45,000  Level FlightAware Transoceanic
10:30PM -4.0451 156.6895 149° Southeast 454 522 45,000  Level FlightAware Transoceanic
10:31PM -4.1575 156.7580 149° Southeast 454 522 45,000  Level FlightAware Transoceanic
10:32PM -4.2697 156.8265 149° Southeast 454 522 45,000  Level FlightAware Transoceanic
10:33PM -4.3820 156.8950 149° Southeast 454 522 45,000  Level FlightAware Transoceanic
10:34PM -4.4943 156.9635 149° Southeast 454 522 45,000  Level FlightAware Transoceanic
10:35PM -4.6066 157.0320 149° Southeast 454 522 45,000  Level FlightAware Transoceanic
10:36PM -4.7188 157.1006 149° Southeast 454 522 45,000  Level FlightAware Transoceanic
10:37PM -4.8311 157.1692 149° Southeast 454 522 45,000  Level FlightAware Transoceanic
10:38PM -4.9433 157.2378 149° Southeast 454 522 45,000  Level FlightAware Transoceanic
10:39PM -5.0556 157.3065 149° Southeast 454 522 45,000  Level FlightAware Transoceanic
10:40PM -5.1678 157.3751 149° Southeast 454 522 45,000  Level FlightAware Transoceanic
10:41PM -5.2800 157.4438 149° Southeast 454 522 45,000  Level FlightAware Transoceanic
10:42PM -5.3923 157.5125 149° Southeast 454 522 45,000  Level FlightAware Transoceanic
10:43PM -5.5045 157.5812 149° Southeast 454 522 45,000  Level FlightAware Transoceanic
10:44PM -5.6215 157.6366 155° Southeast  Level FlightAware Approximate
10:45PM -5.7386 157.6919 155° Southeast  Level FlightAware Approximate
10:46PM -5.7321 157.7015 148° Southeast  Level FlightAware Approximate
10:47PM -5.8418 157.7704 148° Southeast  Level FlightAware Approximate
10:48PM -5.9515 157.8394 148° Southeast  Level FlightAware Approximate
10:49PM -6.0592 157.9070 148° Southeast  Level FlightAware Approximate
10:50PM -6.1668 157.9747 148° Southeast  Level FlightAware Approximate
10:51PM -6.2744 158.0425 148° Southeast  Level FlightAware Approximate
10:52PM -6.3820 158.1102 148° Southeast  Level FlightAware Approximate
10:53PM -6.4896 158.1780 148° Southeast  Level FlightAware Approximate
10:54PM -6.5972 158.2458 148° Southeast  Level FlightAware Approximate
10:55PM -6.7048 158.3137 148° Southeast  Level FlightAware Approximate
10:56PM -6.8124 158.3815 148° Southeast  Level FlightAware Approximate
10:57PM -6.9196 158.4492 148° Southeast  Level FlightAware Approximate
10:58PM -7.0267 158.5168 148° Southeast  Level FlightAware Approximate
10:59PM -7.1338 158.5845 148° Southeast  Level FlightAware Approximate
11:00PM -7.2409 158.6523 148° Southeast  Level FlightAware Approximate
11:01PM -7.3480 158.7200 148° Southeast  Level FlightAware Approximate
11:02PM -7.4551 158.7878 148° Southeast  Level FlightAware Approximate
11:03PM -7.5622 158.8556 148° Southeast  Level FlightAware Approximate
11:04PM -7.6693 158.9235 148° Southeast  Level FlightAware Approximate
11:05PM -7.7763 158.9914 148° Southeast  Level FlightAware Approximate
11:06PM -7.8834 159.0593 148° Southeast  Level FlightAware Approximate
11:07PM -7.9904 159.1272 148° Southeast  Level FlightAware Approximate
11:08PM -8.0977 159.1947 148° Southeast  Level FlightAware Approximate
11:09PM -8.2051 159.2621 148° Southeast  Level FlightAware Approximate
11:10PM -8.3125 159.3296 148° Southeast  Level FlightAware Approximate
11:11PM -8.4199 159.3971 148° Southeast  Level FlightAware Approximate
11:12PM -8.5272 159.4647 148° Southeast  Level FlightAware Approximate
11:13PM -8.6346 159.5321 148° Southeast  Level FlightAware Approximate
11:14PM -8.7419 159.5993 148° Southeast  Level FlightAware Approximate
11:15PM -8.8492 159.6665 148° Southeast  Level FlightAware Approximate
11:16PM -8.9565 159.7338 148° Southeast  Level FlightAware Approximate
11:17PM -9.0637 159.8011 148° Southeast  Level FlightAware Approximate
11:18PM -9.1710 159.8684 148° Southeast  Level FlightAware Approximate
11:19PM -9.2782 159.9358 148° Southeast  Level FlightAware Approximate
11:20PM -9.3854 160.0032 148° Southeast  Level FlightAware Approximate
11:21PM -9.4837 160.0823 136° Southeast  Level FlightAware Approximate
11:22PM -9.5746 160.1710 136° Southeast  Level FlightAware Approximate
11:23PM -9.6656 160.2597 136° Southeast  Level FlightAware Approximate
11:24PM -9.7565 160.3485 136° Southeast  Level FlightAware Approximate
11:25PM -9.8474 160.4373 136° Southeast  Level FlightAware Approximate
11:26PM -9.9383 160.5261 136° Southeast  Level FlightAware Approximate
11:27PM -10.0292 160.6150 136° Southeast  Level FlightAware Approximate
11:28PM -10.1200 160.7040 136° Southeast  Level FlightAware Approximate
11:29PM -10.2113 160.7924 137° Southeast  Level FlightAware Approximate
11:30PM -10.3029 160.8807 137° Southeast  Level FlightAware Approximate
11:31PM -10.3944 160.9690 136° Southeast  Level FlightAware Approximate
11:32PM -10.4859 161.0574 136° Southeast  Level FlightAware Approximate
11:33PM -10.5773 161.1458 136° Southeast  Level FlightAware Approximate
11:34PM -10.6688 161.2342 137° Southeast  Level FlightAware Approximate
11:35PM -10.7605 161.3224 137° Southeast  Level FlightAware Approximate
11:36PM -10.8520 161.4106 137° Southeast  Level FlightAware Approximate
11:37PM -10.9434 161.4987 137° Southeast  Level FlightAware Approximate
11:38PM -11.0348 161.5870 137° Southeast  Level FlightAware Approximate
11:39PM -11.1262 161.6753 137° Southeast  Level FlightAware Approximate
11:40PM -11.2175 161.7636 137° Southeast  Level FlightAware Approximate
11:41PM -11.3088 161.8520 136° Southeast  Level FlightAware Approximate
11:42PM -11.4001 161.9405 136° Southeast  Level FlightAware Approximate
11:43PM -11.4914 162.0290 136° Southeast  Level FlightAware Approximate
11:44PM -11.5826 162.1176 136° Southeast  Level FlightAware Approximate
11:45PM -11.6739 162.2062 136° Southeast  Level FlightAware Approximate
11:46PM -11.7650 162.2949 136° Southeast  Level FlightAware Approximate
11:47PM -11.8562 162.3837 136° Southeast  Level FlightAware Approximate
11:48PM -11.9473 162.4725 136° Southeast  Level FlightAware Approximate
11:49PM -12.0385 162.5614 136° Southeast  Level FlightAware Approximate
11:50PM -12.1295 162.6503 136° Southeast  Level FlightAware Approximate
11:51PM -12.2206 162.7393 136° Southeast  Level FlightAware Approximate
11:52PM -12.3116 162.8283 136° Southeast  Level FlightAware Approximate
11:53PM -12.4026 162.9174 136° Southeast  Level FlightAware Approximate
11:54PM -12.4936 163.0066 136° Southeast  Level FlightAware Approximate
11:55PM -12.5845 163.0959 136° Southeast  Level FlightAware Approximate
11:56PM -12.6754 163.1852 136° Southeast  Level FlightAware Approximate
11:57PM -12.7661 163.2744 136° Southeast  Level FlightAware Approximate
11:58PM -12.8567 163.3636 136° Southeast  Level FlightAware Approximate
11:59PM -12.9474 163.4529 136° Southeast  Level FlightAware Approximate
12:00AM -13.0380 163.5423 136° Southeast  Level FlightAware Approximate
12:01AM -13.1285 163.6317 136° Southeast  Level FlightAware Approximate
12:02AM -13.2191 163.7212 136° Southeast  Level FlightAware Approximate
12:03AM -13.3096 163.8108 136° Southeast  Level FlightAware Approximate
12:04AM -13.4001 163.9005 136° Southeast  Level FlightAware Approximate
12:05AM -13.4904 163.9903 136° Southeast  Level FlightAware Approximate
12:06AM -13.5805 164.0803 136° Southeast  Level FlightAware Approximate
12:07AM -13.6707 164.1705 136° Southeast  Level FlightAware Approximate
12:08AM -13.7608 164.2606 136° Southeast  Level FlightAware Approximate
12:09AM -13.8508 164.3509 136° Southeast  Level FlightAware Approximate
12:10AM -13.9409 164.4412 136° Southeast  Level FlightAware Approximate
12:11AM -14.0309 164.5316 136° Southeast  Level FlightAware Approximate
12:12AM -14.1208 164.6221 136° Southeast  Level FlightAware Approximate
12:13AM -14.2108 164.7126 136° Southeast  Level FlightAware Approximate
12:14AM -14.3007 164.8032 136° Southeast  Level FlightAware Approximate
12:15AM -14.3905 164.8939 136° Southeast  Level FlightAware Approximate
12:16AM -14.4804 164.9846 136° Southeast  Level FlightAware Approximate
12:17AM -14.5702 165.0754 136° Southeast  Level FlightAware Approximate
12:18AM -14.6599 165.1663 136° Southeast  Level FlightAware Approximate
12:19AM -14.7496 165.2573 136° Southeast  Level FlightAware Approximate
12:20AM -14.8393 165.3484 136° Southeast  Level FlightAware Approximate
12:21AM -14.9290 165.4395 136° Southeast  Level FlightAware Approximate
12:22AM -15.0186 165.5307 136° Southeast  Level FlightAware Approximate
12:23AM -15.1082 165.6220 135° Southeast  Level FlightAware Approximate
12:24AM -15.1977 165.7133 135° Southeast  Level FlightAware Approximate
12:25AM -15.2872 165.8047 135° Southeast  Level FlightAware Approximate
12:26AM -15.3767 165.8963 135° Southeast  Level FlightAware Approximate
12:27AM -15.4661 165.9878 135° Southeast  Level FlightAware Approximate
12:28AM -15.5555 166.0795 135° Southeast  Level FlightAware Approximate
12:29AM -15.6449 166.1712 135° Southeast  Level FlightAware Approximate
12:30AM -15.7342 166.2631 135° Southeast  Level FlightAware Approximate
12:31AM -15.8235 166.3550 135° Southeast  Level FlightAware Approximate
12:32AM -15.9132 166.4465 136° Southeast  Level FlightAware Approximate
12:33AM -16.0038 166.5371 136° Southeast  Level FlightAware Approximate
12:34AM -16.0914 166.6307 132° Southeast  Level FlightAware Approximate
12:35AM -16.1767 166.7267 136° Southeast  Level FlightAware Approximate
12:36AM -16.2674 166.8174 136° Southeast  Level FlightAware Approximate
12:37AM -16.3580 166.9080 136° Southeast  Level FlightAware Approximate
12:38AM -16.4487 166.9987 136° Southeast  Level FlightAware Approximate
12:39AM -16.5312 167.0968 125° Southeast  Level FlightAware Approximate
12:40AM -16.6214 167.1880 136° Southeast  Level FlightAware Approximate
12:41AM -16.7119 167.2790 135° Southeast  Level FlightAware Approximate
12:42AM -16.8011 167.3714 135° Southeast  Level FlightAware Approximate
12:43AM -16.8903 167.4639 135° Southeast  Level FlightAware Approximate
12:44AM -16.9795 167.5565 135° Southeast  Level FlightAware Approximate
12:45AM -17.0686 167.6492 135° Southeast  Level FlightAware Approximate
12:46AM -17.1565 167.7431 133° Southeast  Level FlightAware Approximate
12:47AM -17.2414 167.8401 132° Southeast  Level FlightAware Approximate
12:48AM -17.3316 167.9316 136° Southeast  Level FlightAware Approximate
12:49AM -17.4211 168.0241 133° Southeast  Level FlightAware Approximate
12:50AM -17.5060 168.1212 133° Southeast  Level FlightAware Approximate
12:51AM -17.5921 168.2087 136° Southeast  Level FlightAware Approximate
12:52AM -17.6758 168.3066 128° Southeast  Level FlightAware Approximate
12:53AM -17.7000 168.3000 224° Southwest  Level FlightAware Approximate
12:54AM -17.6993 168.3198 224° Southwest  Level Estimated
12:55AM -17.6993 168.3198 224° Southwest  Level Estimated
12:56AM -17.6993 168.3198 224° Southwest  Level Estimated
12:57AM -17.6993 168.3198 224° Southwest  Level Estimated
12:58AM -17.6993 168.3198 224° Southwest  Level Estimated
12:59AM -17.6993 168.3198 224° Southwest  Level Estimated
01:00AM -17.6993 168.3198 224° Southwest  Level Estimated
01:01AM -17.6993 168.3198 224° Southwest  Level Estimated
01:02AM -17.6993 168.3198 224° Southwest  Level Estimated
01:03AM -17.6993 168.3198 224° Southwest  Level Estimated
01:04AM -17.6993 168.3198 224° Southwest  Level Estimated
01:05AM -17.6993 168.3198 224° Southwest  Level Estimated
01:06AM -17.6993 168.3198 224° Southwest  Level Estimated
01:07AM -17.6993 168.3198 224° Southwest  Level Estimated
01:08AM -17.6993 168.3198 224° Southwest  Level Estimated
01:09AM -17.6993 168.3198 224° Southwest  Level Estimated
01:10AM -17.6993 168.3198 224° Southwest  Level Estimated
01:11AM -17.6993 168.3198 224° Southwest  Level Estimated
01:12AM -17.6993 168.3198 224° Southwest  Level Estimated
01:13AM -17.6993 168.3198 224° Southwest  Level Estimated
01:14AM -17.6993 168.3198 224° Southwest  Level Estimated